September 28, 2022

Time Code Weather Temp. Visibility Ceiling Wind METAR/SPECI
01:50
M
8 °C 10 km+ 1,400 ft 230° 230° 13 kt METAR EDJA 272350Z AUTO 23013KT 9999 // FEW011/// BKN014/// OVC017/// 08/06 Q1002
01:20
M
8 °C 10 km+ 1,700 ft 230° 230° 11 kt METAR EDJA 272320Z AUTO 23011KT 9999 // SCT015/// BKN017/// OVC020/// 08/06 Q1002
00:50
M
8 °C 10 km+ 1,100 ft 230° 230° 13 kt METAR EDJA 272250Z AUTO 23013KT 9999 // BKN011/// OVC021/// 08/06 Q1003
00:20
M
8 °C 10 km+ 1,500 ft 230° 230° 12 kt METAR EDJA 272220Z AUTO 23012KT 9999 // FEW013/// BKN015/// OVC032/// 08/06 Q1003

September 27, 2022

Time Code Weather Temp. Visibility Ceiling Wind METAR/SPECI
23:50
M
8 °C 10 km+ 1,000 ft 240° 240° 12 kt METAR EDJA 272150Z AUTO 24012KT 9999 // BKN010/// BKN012/// OVC018/// 08/07 Q1003
23:20
M
8 °C 10 km+ 1,300 ft 230° 230° 12 kt METAR EDJA 272120Z AUTO 23012KT 9999 // BKN013/// BKN019/// OVC039/// 08/06 Q1003
22:50
M
8 °C 10 km+ 1,300 ft 240° 240° 12 kt METAR EDJA 272050Z AUTO 24012KT 9999 // OVC013/// 08/06 Q1004
22:20
M
8 °C 10 km+ 1,300 ft 240° 240° 13 kt METAR EDJA 272020Z 24013KT 9999 BKN013 OVC020 08/06 Q1004
21:50
V
8 °C 10 km+ 3,900 ft 230° 230° 14 - 24 kt METAR EDJA 271950Z 23014G24KT 9999 -RA FEW015 BKN039 OVC051 08/06 Q1003
21:20
V
8 °C 10 km+ 4,400 ft 230° 230° 13 kt METAR EDJA 271920Z 23013KT 9999 FEW014 OVC044 08/06 Q1003
20:50
V
8 °C 10 km+ 4,500 ft 230° 230° 13 kt METAR EDJA 271850Z 23013KT 9999 FEW014 OVC045 08/06 Q1003
20:20
V
8 °C 10 km+ - 230° 230° 13 kt METAR EDJA 271820Z 23013KT 9999 SCT014 08/06 Q1003
19:50
M
8 °C 10 km+ 1,500 ft 230° 230° 14 kt METAR EDJA 271750Z 23014KT 9999 BKN015 08/06 Q1003
19:20
M
8 °C 10 km+ 2,100 ft 230° 230° 10 kt METAR EDJA 271720Z 23010KT 9999 FEW015 BKN021 OVC030 08/06 Q1003
18:50
V
8 °C 10 km+ 4,300 ft 240° 240° 18 kt METAR EDJA 271650Z 24018KT 9999 -RA SCT021 BKN043 OVC049 08/06 Q1003
18:20
V
8 °C 10 km+ 4,200 ft 250° 250° 16 kt METAR EDJA 271620Z 25016KT 9999 SCT022 BKN042 OVC049 08/06 Q1003
17:50
V
9 °C 10 km+ 3,700 ft 250° 250° 13 kt METAR EDJA 271550Z 25013KT 9999 -RA FEW020 OVC037 09/06 Q1003
17:20
V
10 °C 10 km+ 3,400 ft 240° 240° 16 - 26 kt METAR EDJA 271520Z 24016G26KT 9999 -RA BKN034 10/05 Q1003
16:50
M
10 °C 10 km+ 2,700 ft 230° 230° 17 - 28 kt METAR EDJA 271450Z 23017G28KT 200V260 9999 BKN027 BKN035 BKN062 10/05 Q1003
16:20
V
10 °C 10 km+ 4,300 ft 230° 230° 15 - 26 kt METAR EDJA 271420Z 23015G26KT 9999 -RA FEW028 BKN043 10/05 Q1002
15:50
M
9 °C 10 km+ 2,500 ft 240° 240° 16 kt METAR EDJA 271350Z 24016KT 9999 BKN025 BKN029 BKN035 09/05 Q1003
15:20
V
10 °C 10 km+ - 240° 240° 19 kt METAR EDJA 271320Z 24019KT 9999 SCT023 10/05 Q1003
14:50
V
10 °C 10 km+ - 250° 250° 19 kt METAR EDJA 271250Z 25019KT 9999 FEW021 10/05 Q1003
14:20
V
9 °C 10 km+ 4,500 ft 250° 250° 19 kt METAR EDJA 271220Z 25019KT 9999 FEW024 BKN045 09/05 Q1003
13:50
V
9 °C 10 km+ - 240° 240° 19 kt METAR EDJA 271150Z 24019KT 9999 FEW022 09/05 Q1003
13:20
V
10 °C 10 km+ - 250° 250° 18 - 28 kt METAR EDJA 271120Z 25018G28KT 9999 SCT019 10/05 Q1003
12:50
V
10 °C 10 km+ - 250° 250° 19 kt METAR EDJA 271050Z 25019KT 9999 FEW016 SCT018 10/06 Q1003
12:20
M
9 °C 10 km+ 1,600 ft 240° 240° 17 kt METAR EDJA 271020Z 24017KT 9999 SCT013 BKN016 09/07 Q1003
11:50
V
8 °C 10 km+ - 250° 250° 15 kt METAR EDJA 270950Z 25015KT 9999 FEW016 SCT021 08/05 Q1003
11:20
V
8 °C 10 km+ 3,600 ft 260° 260° 16 kt METAR EDJA 270920Z 26016KT 9999 SCT025 OVC036 08/05 Q1003
10:50
V
9 °C 10 km+ 5,400 ft 260° 260° 16 kt METAR EDJA 270850Z 26016KT 9999 FEW017 SCT020 OVC054 09/07 Q1003
10:20
M
8 °C 10 km+ 2,700 ft 250° 250° 12 kt METAR EDJA 270820Z 25012KT 9999 FEW014 BKN027 OVC051 08/06 Q1002
09:50
M
7 °C 6 km 2,600 ft 280° 280° 18 kt METAR EDJA 270750Z 28018KT 6000 -SHRA FEW009 OVC026 07/05 Q1002
09:20
M
8 °C 10 km+ 1,200 ft 250° 250° 13 kt METAR EDJA 270720Z 25013KT 9999 -SHRA BKN012 BKN030 08/07 Q1002
08:50
V
8 °C 10 km+ 3,900 ft 240° 240° 14 kt METAR EDJA 270650Z 24014KT 9999 -SHRA FEW012 SCT032 BKN039 08/06 Q1001
08:20
V
8 °C 10 km+ 3,200 ft 240° 240° 13 kt METAR EDJA 270620Z 24013KT 9999 -SHRA FEW010 BKN032 OVC046 08/07 Q1001
07:50
M
8 °C 10 km+ 2,000 ft 240° 240° 10 kt METAR EDJA 270550Z 24010KT 9999 -SHRA SCT011 BKN020 OVC039 08/07 Q1001
07:20
V
8 °C 10 km+ 5,500 ft 250° 250° 11 kt METAR EDJA 270520Z 25011KT 9999 FEW012 SCT018 OVC055 08/06 Q1001
06:50
V
8 °C 10 km+ 3,800 ft 240° 240° 15 kt METAR EDJA 270450Z 24015KT 9999 SCT013 BKN038 08/07 Q1001
06:20
V
8 °C 10 km+ 3,400 ft 230° 230° 14 kt METAR EDJA 270420Z 23014KT 9999 -DZ FEW012 SCT015 OVC034 08/07 Q1000
05:50
M
9 °C 10 km+ 1,500 ft 240° 240° 16 kt METAR EDJA 270350Z 24016KT 9999 -DZ BKN015 OVC023 09/07 Q1000
05:20
M
9 °C 10 km+ 1,700 ft 230° 230° 17 - 30 kt METAR EDJA 270320Z AUTO 23017G30KT 9999 // SCT015/// BKN017/// OVC040/// 09/07 Q1000
04:50
M
9 °C 10 km+ 1,600 ft 220° 220° 16 kt METAR EDJA 270250Z AUTO 22016KT 9999 // OVC016/// 09/07 Q1000
04:20
V
9 °C 10 km+ 3,800 ft 220° 220° 12 kt METAR EDJA 270220Z AUTO 22012KT 9999 // FEW011/// OVC038/// 09/07 Q1000
03:50
V
9 °C 10 km+ 4,100 ft 230° 230° 15 kt METAR EDJA 270150Z AUTO 23015KT 9999 // OVC041/// 09/07 Q1000
03:20
V
9 °C 10 km+ 5,000 ft 230° 230° 16 kt METAR EDJA 270120Z AUTO 23016KT 9999 // FEW019/// OVC050/// 09/07 Q1001
02:50
M
9 °C 10 km+ 1,700 ft 230° 230° 16 kt METAR EDJA 270050Z AUTO 23016KT 9999 // BKN017/// OVC048/// 09/07 Q1001
02:20
V
10 °C 10 km+ 4,700 ft 230° 230° 12 kt METAR EDJA 270020Z AUTO 23012KT 9999 // FEW019/// BKN047/// OVC057/// 10/07 Q1001
01:50
V
10 °C 10 km+ 6,200 ft 230° 230° 13 kt METAR EDJA 262350Z AUTO 23013KT 9999 // FEW022/// SCT048/// OVC062/// 10/07 Q1001
01:20
V
10 °C 10 km+ 6,700 ft 230° 230° 12 kt METAR EDJA 262320Z AUTO 23012KT 9999 // OVC067/// 10/07 Q1002
00:50
V
10 °C 10 km+ 6,800 ft 240° 240° 13 kt METAR EDJA 262250Z AUTO 24013KT 9999 // FEW059/// BKN068/// OVC087/// 10/06 Q1002
00:20
V
11 °C 10 km+ 6,700 ft 250° 250° 16 kt METAR EDJA 262220Z AUTO 25016KT 9999 // OVC067/// 11/06 Q1002

September 26, 2022

Time Code Weather Temp. Visibility Ceiling Wind METAR/SPECI
23:50
V
11 °C 10 km+ 9,600 ft 210° 210° 10 kt METAR EDJA 262150Z AUTO 21010KT 9999 // OVC096/// 11/06 Q1003
23:20
V
10 °C 10 km+ 10,000 ft 210° 210° 9 kt METAR EDJA 262120Z AUTO 21009KT 9999 // OVC100/// 10/06 Q1003
22:50
V
10 °C 10 km+ 10,000 ft 200° 200° 8 kt METAR EDJA 262050Z AUTO 20008KT 9999 // OVC100/// 10/06 Q1003
22:20
V
10 °C 10 km+ 9,400 ft 200° 200° 9 kt METAR EDJA 262020Z AUTO 20009KT 9999 // OVC094/// 10/06 Q1004
21:50
V
10 °C 10 km+ - 190° 190° 9 kt METAR EDJA 261950Z 19009KT CAVOK 10/06 Q1004
21:20
V
10 °C 10 km+ - 190° 190° 7 kt METAR EDJA 261920Z 19007KT CAVOK 10/07 Q1005
20:50
V
10 °C 10 km+ - 190° 190° 6 kt METAR EDJA 261850Z 19006KT 9999 FEW062 10/06 Q1005
20:20
V
10 °C 10 km+ - 190° 190° 7 kt METAR EDJA 261820Z 19007KT 9999 FEW051 10/07 Q1005
19:50
V
10 °C 10 km+ - 210° 210° 7 kt METAR EDJA 261750Z 21007KT CAVOK 10/06 Q1006
19:20
V
11 °C 10 km+ - 220° 220° 7 kt METAR EDJA 261720Z 22007KT CAVOK 11/06 Q1005
18:50
V
11 °C 10 km+ - 240° 240° 9 kt METAR EDJA 261650Z 24009KT CAVOK 11/06 Q1006
18:20
V
12 °C 10 km+ - 220° 220° 10 kt METAR EDJA 261620Z 22010KT CAVOK 12/06 Q1006
17:50
V
12 °C 10 km+ - 230° 230° 12 kt METAR EDJA 261550Z 23012KT 9999 FEW037 12/06 Q1006
17:20
V
12 °C 10 km+ - 230° 230° 12 kt METAR EDJA 261520Z 23012KT 9999 FEW037 12/05 Q1006
16:50
V
13 °C 10 km+ - 230° 230° 12 kt METAR EDJA 261450Z 23012KT 9999 FEW036 13/05 Q1006
16:20
V
14 °C 10 km+ - 240° 240° 12 kt METAR EDJA 261420Z 24012KT 9999 FEW034 14/07 Q1006
15:50
V
14 °C 10 km+ - 230° 230° 13 kt METAR EDJA 261350Z 23013KT 9999 FEW035 14/07 Q1006
15:20
V
13 °C 10 km+ - 220° 220° 12 kt METAR EDJA 261320Z 22012KT 9999 FEW031 13/07 Q1007
14:50
V
13 °C 10 km+ - 220° 220° 13 kt METAR EDJA 261250Z 22013KT 9999 FEW027 13/07 Q1007
14:20
V
13 °C 10 km+ - 220° 220° 13 kt METAR EDJA 261220Z 22013KT 9999 FEW045 13/07 Q1008
13:50
M
14 °C 10 km+ 2,400 ft 220° 220° 15 kt METAR EDJA 261150Z 22015KT 9999 BKN024 14/09 Q1008
13:20
M
14 °C 10 km+ 2,300 ft 230° 230° 13 kt METAR EDJA 261120Z 23013KT 9999 BKN023 14/10 Q1009
12:50
M
13 °C 10 km+ 1,900 ft 230° 230° 14 kt METAR EDJA 261050Z 23014KT 9999 BKN019 13/08 Q1009
12:20
V
12 °C 10 km+ - 230° 230° 14 kt METAR EDJA 261020Z 23014KT 9999 FEW017 12/07 Q1009
11:50
M
12 °C 10 km+ 1,500 ft 220° 220° 12 kt METAR EDJA 260950Z 22012KT 9999 BKN015 12/08 Q1009
11:20
M
12 °C 10 km+ 1,500 ft 230° 230° 11 kt METAR EDJA 260920Z 23011KT 9999 SCT010 BKN015 BKN018 12/09 Q1009
10:50
V
11 °C 10 km+ 5,900 ft 210° 210° 10 kt METAR EDJA 260850Z 21010KT 9999 SCT008 SCT010 BKN059 11/08 Q1009
10:20
M
10 °C 10 km+ 1,500 ft 220° 220° 10 kt METAR EDJA 260820Z 22010KT 9999 -DZ SCT009 BKN015 OVC021 10/09 Q1010
09:50
M
10 °C 10 km+ 1,500 ft 210° 210° 8 kt METAR EDJA 260750Z 21008KT 9999 SCT009 OVC015 10/08 Q1010
09:20
M
10 °C 10 km+ 1,500 ft 210° 210° 7 kt METAR EDJA 260720Z 21007KT 9999 FEW008 SCT010 OVC015 10/09 Q1010
08:50
M
10 °C 10 km+ 1,500 ft 210° 210° 5 kt METAR EDJA 260650Z 21005KT 9999 SCT008 BKN015 OVC024 10/09 Q1010
08:20
M
10 °C 10 km+ 1,000 ft 200° 200° 5 kt METAR EDJA 260620Z 20005KT 9999 -SHRA BKN010CB BKN016 OVC021 10/09 Q1010
07:50
M
9 °C 10 km+ 2,800 ft 230° 230° 4 kt METAR EDJA 260550Z 23004KT 9999 -SHRA FEW007 SCT022CB OVC028 09/09 Q1010
07:20
M
9 °C 10 km+ 2,400 ft 240° 240° 5 kt METAR EDJA 260520Z 24005KT 9999 FEW015 BKN024 OVC029 09/09 Q1010
06:50
M
9 °C 10 km+ 2,600 ft 240° 240° 6 kt METAR EDJA 260450Z 24006KT 9999 -DZ FEW008 BKN026 OVC030 09/09 Q1010
06:20
M
9 °C 9 km 1,600 ft 240° 240° 5 kt METAR EDJA 260420Z 24005KT 9000 SCT008 BKN016 OVC040 09/09 Q1010
05:50
I
10 °C 10 km+ 900 ft 250° 250° 5 kt METAR EDJA 260350Z AUTO 25005KT 9999 // SCT007/// BKN009/// OVC021/// 10/09 Q1011
05:20
M
10 °C 10 km+ 1,500 ft 240° 240° 6 kt METAR EDJA 260320Z AUTO 24006KT 9999 // SCT008/// BKN015/// OVC018/// 10/09 Q1011
04:50
I
10 °C 10 km+ 700 ft 240° 240° 6 kt METAR EDJA 260250Z AUTO 24006KT 9999 // BKN007/// BKN038/// OVC045/// 10/09 Q1011
04:20
I
10 °C 10 km+ 900 ft 240° 240° 7 kt METAR EDJA 260220Z AUTO 24007KT 9999 // SCT007/// BKN009/// OVC042/// 10/09 Q1011
03:50
M
10 °C 10 km+ 1,700 ft 230° 230° 7 kt METAR EDJA 260150Z AUTO 23007KT 9999 // SCT008/// BKN017/// OVC050/// 10/09 Q1011
03:20
I
10 °C 10 km+ 900 ft 230° 230° 7 kt METAR EDJA 260120Z AUTO 23007KT 9999 // BKN009/// BKN018/// OVC023/// 10/09 Q1011
02:50
M
10 °C 10 km+ 1,600 ft 230° 230° 6 kt METAR EDJA 260050Z AUTO 23006KT 9999 // SCT008/// BKN016/// OVC020/// 10/09 Q1012
02:20
M
10 °C 10 km+ 2,000 ft 220° 220° 5 kt METAR EDJA 260020Z AUTO 22005KT 9999 // SCT006/// BKN020/// OVC025/// 10/09 Q1012
01:50
V
10 °C 8 km 3,300 ft 230° 230° 4 kt METAR EDJA 252350Z AUTO 23004KT 8000 // SCT025/// BKN033/// OVC043/// 10/09 Q1012
01:20
V
10 °C 10 km+ 3,100 ft 230° 230° 5 kt METAR EDJA 252320Z AUTO 23005KT 9999 // SCT011/// BKN031/// OVC058/// 10/09 Q1012
00:50
M
10 °C 10 km+ 1,100 ft 230° 230° 5 kt METAR EDJA 252250Z AUTO 23005KT 9999 // SCT007/// BKN011/// OVC053/// 10/09 Q1012
00:20
I
10 °C 10 km+ 600 ft 240° 240° 5 kt METAR EDJA 252220Z AUTO 24005KT 9999 // SCT004/// BKN006/// OVC009/// 10/10 Q1012

September 25, 2022

Time Code Weather Temp. Visibility Ceiling Wind METAR/SPECI
23:50
I
10 °C 10 km+ 700 ft 230° 230° 6 kt METAR EDJA 252150Z AUTO 23006KT 9999 // SCT005/// OVC007/// 10/09 Q1012
23:20
I
10 °C 10 km+ 600 ft 240° 240° 5 kt METAR EDJA 252120Z AUTO 24005KT 200V270 9999 // BKN006/// BKN012/// OVC015/// 10/09 Q1012
22:50
M
10 °C 10 km+ 1,600 ft 230° 230° 4 kt METAR EDJA 252050Z AUTO 23004KT 9999 // FEW006/// BKN016/// OVC023/// 10/09 Q1013
22:20
M
10 °C 10 km+ 1,500 ft 220° 220° 7 kt METAR EDJA 252020Z 22007KT 9999 FEW007 BKN015 10/09 Q1013
21:50
M
10 °C 10 km+ 1,600 ft 220° 220° 7 kt METAR EDJA 251950Z 22007KT 9999 FEW014 BKN016 OVC061 10/09 Q1012
21:20
M
10 °C 10 km+ 1,300 ft 210° 210° 9 kt METAR EDJA 251920Z 21009KT 9999 -RA FEW005 BKN013 OVC019 10/09 Q1012
20:50
M
10 °C 10 km+ 1,300 ft 220° 220° 7 kt METAR EDJA 251850Z 22007KT 9999 -SHRA SCT008 BKN013TCU OVC018 10/09 Q1012 RERA
20:20
M
10 °C 10 km+ 2,500 ft 220° 220° 6 kt METAR EDJA 251820Z 22006KT 9999 SCT021 BKN025 10/09 Q1012
19:50
V
10 °C 10 km+ 6,000 ft 210° 210° 8 kt METAR EDJA 251750Z 21008KT 9999 -SHRA FEW024 SCT028TCU OVC060 10/09 Q1012
19:20
V
11 °C 10 km+ 5,300 ft 210° 210° 7 kt METAR EDJA 251720Z 21007KT 9999 VCSH FEW021 SCT030TCU OVC053 11/10 Q1012
18:50
V
11 °C 9 km 3,200 ft 220° 220° 5 kt METAR EDJA 251650Z 22005KT 9000 -SHRA SCT021 BKN032TCU OVC048 11/10 Q1012
18:20
V
12 °C 10 km+ 3,700 ft 230° 230° 5 kt METAR EDJA 251620Z 23005KT 9999 -SHRA BKN037TCU OVC052 12/10 Q1011
17:50
V
13 °C 10 km+ 5,300 ft 300° 300° 4 kt METAR EDJA 251550Z 30004KT 9999 OVC053 13/09 Q1011
17:20
V
13 °C 10 km+ 5,500 ft 330° 330° 4 kt METAR EDJA 251520Z 33004KT 300V360 9999 BKN055 13/08 Q1011
16:50
V
14 °C 10 km+ - 320° 320° 7 kt METAR EDJA 251450Z 32007KT 9999 FEW018 14/09 Q1011
Older data

We and third parties follow your internet behavior on our website with cookies. If you continue, we assume you agree with our cookie policy. Learn more